sensor_id;sensor_type;location;lat;lon;timestamp;temperature;humidity
13472;DHT22;6808;49.444;11.034;2022-12-07T00:01:37;3.00;99.90
13472;DHT22;6808;49.444;11.034;2022-12-07T00:04:05;3.00;99.90
13472;DHT22;6808;49.444;11.034;2022-12-07T00:06:37;3.00;99.90
13472;DHT22;6808;49.444;11.034;2022-12-07T00:09:04;3.00;99.90
13472;DHT22;6808;49.444;11.034;2022-12-07T00:11:30;3.00;99.90
13472;DHT22;6808;49.444;11.034;2022-12-07T00:13:58;3.00;99.90
13472;DHT22;6808;49.444;11.034;2022-12-07T00:16:27;3.00;99.90
13472;DHT22;6808;49.444;11.034;2022-12-07T00:18:53;3.00;99.90
13472;DHT22;6808;49.444;11.034;2022-12-07T00:21:21;3.00;99.90
13472;DHT22;6808;49.444;11.034;2022-12-07T00:23:48;2.90;99.90
13472;DHT22;6808;49.444;11.034;2022-12-07T00:26:19;2.90;99.90
13472;DHT22;6808;49.444;11.034;2022-12-07T00:28:51;2.90;99.90
13472;DHT22;6808;49.444;11.034;2022-12-07T00:31:18;2.90;99.90
13472;DHT22;6808;49.444;11.034;2022-12-07T00:33:44;2.90;99.90
13472;DHT22;6808;49.444;11.034;2022-12-07T00:36:13;2.90;99.90
13472;DHT22;6808;49.444;11.034;2022-12-07T00:38:39;2.90;99.90
13472;DHT22;6808;49.444;11.034;2022-12-07T00:41:16;2.90;99.90
13472;DHT22;6808;49.444;11.034;2022-12-07T00:43:43;2.90;99.90
13472;DHT22;6808;49.444;11.034;2022-12-07T00:46:09;2.90;99.90
13472;DHT22;6808;49.444;11.034;2022-12-07T00:48:34;2.90;99.90
13472;DHT22;6808;49.444;11.034;2022-12-07T00:51:00;3.00;99.90
13472;DHT22;6808;49.444;11.034;2022-12-07T00:53:27;3.00;99.90
13472;DHT22;6808;49.444;11.034;2022-12-07T00:55:53;3.00;99.90
13472;DHT22;6808;49.444;11.034;2022-12-07T00:58:19;3.00;99.90
13472;DHT22;6808;49.444;11.034;2022-12-07T01:00:45;2.90;99.90
13472;DHT22;6808;49.444;11.034;2022-12-07T01:03:12;2.90;99.90
13472;DHT22;6808;49.444;11.034;2022-12-07T01:05:38;2.90;99.90
13472;DHT22;6808;49.444;11.034;2022-12-07T01:08:04;2.90;99.90
13472;DHT22;6808;49.444;11.034;2022-12-07T01:10:29;2.90;99.90
13472;DHT22;6808;49.444;11.034;2022-12-07T01:12:57;2.90;99.90
13472;DHT22;6808;49.444;11.034;2022-12-07T01:15:22;3.00;99.90
13472;DHT22;6808;49.444;11.034;2022-12-07T01:17:48;2.90;99.90
13472;DHT22;6808;49.444;11.034;2022-12-07T01:20:14;2.90;99.90
13472;DHT22;6808;49.444;11.034;2022-12-07T01:22:42;2.90;99.90
13472;DHT22;6808;49.444;11.034;2022-12-07T01:25:09;2.80;99.90
13472;DHT22;6808;49.444;11.034;2022-12-07T01:27:36;2.90;99.90
13472;DHT22;6808;49.444;11.034;2022-12-07T01:30:04;2.90;99.90
13472;DHT22;6808;49.444;11.034;2022-12-07T01:32:29;2.90;99.90
13472;DHT22;6808;49.444;11.034;2022-12-07T01:34:55;2.90;99.90
13472;DHT22;6808;49.444;11.034;2022-12-07T01:37:21;2.90;99.90
13472;DHT22;6808;49.444;11.034;2022-12-07T01:39:50;2.90;99.90
13472;DHT22;6808;49.444;11.034;2022-12-07T01:42:16;2.90;99.90
13472;DHT22;6808;49.444;11.034;2022-12-07T01:47:51;2.90;99.90
13472;DHT22;6808;49.444;11.034;2022-12-07T01:50:19;2.90;99.90
13472;DHT22;6808;49.444;11.034;2022-12-07T01:52:49;2.90;99.90
13472;DHT22;6808;49.444;11.034;2022-12-07T01:55:15;2.80;99.90
13472;DHT22;6808;49.444;11.034;2022-12-07T01:57:44;2.90;99.90
13472;DHT22;6808;49.444;11.034;2022-12-07T02:00:11;2.90;99.90
13472;DHT22;6808;49.444;11.034;2022-12-07T02:03:03;2.90;99.90
13472;DHT22;6808;49.444;11.034;2022-12-07T02:05:25;2.90;99.90
13472;DHT22;6808;49.444;11.034;2022-12-07T02:07:54;2.90;99.90
13472;DHT22;6808;49.444;11.034;2022-12-07T02:10:23;2.90;99.90
13472;DHT22;6808;49.444;11.034;2022-12-07T02:13:11;2.90;99.90
13472;DHT22;6808;49.444;11.034;2022-12-07T02:15:51;2.90;99.90
13472;DHT22;6808;49.444;11.034;2022-12-07T02:18:35;2.90;99.90
13472;DHT22;6808;49.444;11.034;2022-12-07T02:26:50;2.80;99.90
13472;DHT22;6808;49.444;11.034;2022-12-07T02:29:40;2.90;99.90
13472;DHT22;6808;49.444;11.034;2022-12-07T02:32:22;2.90;99.90
13472;DHT22;6808;49.444;11.034;2022-12-07T02:37:45;2.80;99.90
13472;DHT22;6808;49.444;11.034;2022-12-07T02:43:07;2.80;99.90
13472;DHT22;6808;49.444;11.034;2022-12-07T02:45:36;2.80;99.90
13472;DHT22;6808;49.444;11.034;2022-12-07T02:48:04;2.80;99.90
13472;DHT22;6808;49.444;11.034;2022-12-07T02:50:30;2.80;99.90
13472;DHT22;6808;49.444;11.034;2022-12-07T02:52:56;2.70;99.90
13472;DHT22;6808;49.444;11.034;2022-12-07T02:55:29;2.70;99.90
13472;DHT22;6808;49.444;11.034;2022-12-07T02:58:20;2.70;99.90
13472;DHT22;6808;49.444;11.034;2022-12-07T03:07:05;2.70;99.90
13472;DHT22;6808;49.444;11.034;2022-12-07T03:12:22;2.60;99.90
13472;DHT22;6808;49.444;11.034;2022-12-07T03:15:05;2.60;99.90
13472;DHT22;6808;49.444;11.034;2022-12-07T03:17:34;2.60;99.90
13472;DHT22;6808;49.444;11.034;2022-12-07T03:20:04;2.50;99.90
13472;DHT22;6808;49.444;11.034;2022-12-07T03:22:34;2.50;99.90
13472;DHT22;6808;49.444;11.034;2022-12-07T03:25:05;2.50;99.90
13472;DHT22;6808;49.444;11.034;2022-12-07T03:27:35;2.40;99.90
13472;DHT22;6808;49.444;11.034;2022-12-07T03:30:07;2.40;99.90
13472;DHT22;6808;49.444;11.034;2022-12-07T03:37:54;2.50;99.90
13472;DHT22;6808;49.444;11.034;2022-12-07T03:40:30;2.40;99.90
13472;DHT22;6808;49.444;11.034;2022-12-07T03:43:00;2.50;99.90
13472;DHT22;6808;49.444;11.034;2022-12-07T03:48:29;2.50;99.90
13472;DHT22;6808;49.444;11.034;2022-12-07T03:54:01;2.50;99.90
13472;DHT22;6808;49.444;11.034;2022-12-07T03:56:28;2.50;99.90
13472;DHT22;6808;49.444;11.034;2022-12-07T03:58:54;2.40;99.90
13472;DHT22;6808;49.444;11.034;2022-12-07T04:01:20;2.40;99.90
13472;DHT22;6808;49.444;11.034;2022-12-07T04:03:45;2.40;99.90
13472;DHT22;6808;49.444;11.034;2022-12-07T04:06:11;2.40;99.90
13472;DHT22;6808;49.444;11.034;2022-12-07T04:08:37;2.40;99.90
13472;DHT22;6808;49.444;11.034;2022-12-07T04:11:02;2.30;99.90
13472;DHT22;6808;49.444;11.034;2022-12-07T04:13:28;2.30;99.90
13472;DHT22;6808;49.444;11.034;2022-12-07T04:15:53;2.30;99.90
13472;DHT22;6808;49.444;11.034;2022-12-07T04:18:19;2.20;99.90
13472;DHT22;6808;49.444;11.034;2022-12-07T04:20:45;2.20;99.90
13472;DHT22;6808;49.444;11.034;2022-12-07T04:23:11;2.20;99.90
13472;DHT22;6808;49.444;11.034;2022-12-07T04:25:37;2.20;99.90
13472;DHT22;6808;49.444;11.034;2022-12-07T04:28:02;2.20;99.90
13472;DHT22;6808;49.444;11.034;2022-12-07T04:30:28;2.20;99.90
13472;DHT22;6808;49.444;11.034;2022-12-07T04:32:53;2.20;99.90
13472;DHT22;6808;49.444;11.034;2022-12-07T04:35:19;2.10;99.90
13472;DHT22;6808;49.444;11.034;2022-12-07T04:37:44;2.10;99.90
13472;DHT22;6808;49.444;11.034;2022-12-07T04:40:10;2.10;99.90
13472;DHT22;6808;49.444;11.034;2022-12-07T04:42:37;2.10;99.90
13472;DHT22;6808;49.444;11.034;2022-12-07T04:45:03;2.10;99.90
13472;DHT22;6808;49.444;11.034;2022-12-07T04:47:28;2.10;99.90
13472;DHT22;6808;49.444;11.034;2022-12-07T04:49:54;2.10;99.90
13472;DHT22;6808;49.444;11.034;2022-12-07T04:52:19;2.10;99.90
13472;DHT22;6808;49.444;11.034;2022-12-07T04:54:45;2.10;99.90
13472;DHT22;6808;49.444;11.034;2022-12-07T04:57:11;2.20;99.90
13472;DHT22;6808;49.444;11.034;2022-12-07T04:59:36;2.10;99.90
13472;DHT22;6808;49.444;11.034;2022-12-07T05:02:02;2.10;99.90
13472;DHT22;6808;49.444;11.034;2022-12-07T05:04:27;2.10;99.90
13472;DHT22;6808;49.444;11.034;2022-12-07T05:06:53;2.00;99.90
13472;DHT22;6808;49.444;11.034;2022-12-07T05:09:18;2.00;99.90
13472;DHT22;6808;49.444;11.034;2022-12-07T05:11:44;2.00;99.90
13472;DHT22;6808;49.444;11.034;2022-12-07T05:14:19;2.00;99.90
13472;DHT22;6808;49.444;11.034;2022-12-07T05:16:48;2.00;99.90
13472;DHT22;6808;49.444;11.034;2022-12-07T05:19:15;2.00;99.90
13472;DHT22;6808;49.444;11.034;2022-12-07T05:21:41;2.00;99.90
13472;DHT22;6808;49.444;11.034;2022-12-07T05:24:09;2.00;99.90
13472;DHT22;6808;49.444;11.034;2022-12-07T05:26:35;1.90;99.90
13472;DHT22;6808;49.444;11.034;2022-12-07T05:29:00;2.00;99.90
13472;DHT22;6808;49.444;11.034;2022-12-07T05:31:26;1.90;99.90
13472;DHT22;6808;49.444;11.034;2022-12-07T05:33:53;1.90;99.90
13472;DHT22;6808;49.444;11.034;2022-12-07T05:36:19;2.00;99.90
13472;DHT22;6808;49.444;11.034;2022-12-07T05:38:44;2.00;99.90
13472;DHT22;6808;49.444;11.034;2022-12-07T05:41:14;2.00;99.90
13472;DHT22;6808;49.444;11.034;2022-12-07T05:43:59;2.00;99.90
13472;DHT22;6808;49.444;11.034;2022-12-07T05:46:25;2.00;99.90
13472;DHT22;6808;49.444;11.034;2022-12-07T05:48:51;2.10;99.90
13472;DHT22;6808;49.444;11.034;2022-12-07T05:51:16;2.00;99.90
13472;DHT22;6808;49.444;11.034;2022-12-07T05:53:42;2.00;99.90
13472;DHT22;6808;49.444;11.034;2022-12-07T05:56:08;2.10;99.90
13472;DHT22;6808;49.444;11.034;2022-12-07T05:58:33;2.10;99.90
13472;DHT22;6808;49.444;11.034;2022-12-07T06:01:17;2.10;99.90
13472;DHT22;6808;49.444;11.034;2022-12-07T06:03:43;2.10;99.90
13472;DHT22;6808;49.444;11.034;2022-12-07T06:06:08;2.10;99.90
13472;DHT22;6808;49.444;11.034;2022-12-07T06:08:34;2.00;99.90
13472;DHT22;6808;49.444;11.034;2022-12-07T06:10:59;2.00;99.90
13472;DHT22;6808;49.444;11.034;2022-12-07T06:13:43;2.00;99.90
13472;DHT22;6808;49.444;11.034;2022-12-07T06:16:09;2.10;99.90
13472;DHT22;6808;49.444;11.034;2022-12-07T06:18:34;2.00;99.90
13472;DHT22;6808;49.444;11.034;2022-12-07T06:21:00;2.00;99.90
13472;DHT22;6808;49.444;11.034;2022-12-07T06:23:26;2.00;99.90
13472;DHT22;6808;49.444;11.034;2022-12-07T06:25:51;2.00;99.90
13472;DHT22;6808;49.444;11.034;2022-12-07T06:28:17;2.00;99.90
13472;DHT22;6808;49.444;11.034;2022-12-07T06:30:42;2.00;99.90
13472;DHT22;6808;49.444;11.034;2022-12-07T06:33:08;2.00;99.90
13472;DHT22;6808;49.444;11.034;2022-12-07T06:35:33;2.10;99.90
13472;DHT22;6808;49.444;11.034;2022-12-07T06:37:59;2.10;99.90
13472;DHT22;6808;49.444;11.034;2022-12-07T06:40:24;2.00;99.90
13472;DHT22;6808;49.444;11.034;2022-12-07T06:42:50;2.00;99.90
13472;DHT22;6808;49.444;11.034;2022-12-07T06:45:16;2.00;99.90
13472;DHT22;6808;49.444;11.034;2022-12-07T06:47:41;2.00;99.90
13472;DHT22;6808;49.444;11.034;2022-12-07T06:50:07;2.00;99.90
13472;DHT22;6808;49.444;11.034;2022-12-07T06:52:33;2.10;99.90
13472;DHT22;6808;49.444;11.034;2022-12-07T06:54:59;2.10;99.90
13472;DHT22;6808;49.444;11.034;2022-12-07T06:57:25;2.10;99.90
13472;DHT22;6808;49.444;11.034;2022-12-07T06:59:51;2.20;99.90
13472;DHT22;6808;49.444;11.034;2022-12-07T07:02:16;2.20;99.90
13472;DHT22;6808;49.444;11.034;2022-12-07T07:04:43;2.20;99.90
13472;DHT22;6808;49.444;11.034;2022-12-07T07:07:08;2.20;99.90
13472;DHT22;6808;49.444;11.034;2022-12-07T07:09:34;2.20;99.90
13472;DHT22;6808;49.444;11.034;2022-12-07T07:11:59;2.20;99.90
13472;DHT22;6808;49.444;11.034;2022-12-07T07:14:25;2.20;99.90
13472;DHT22;6808;49.444;11.034;2022-12-07T07:16:51;2.20;99.90
13472;DHT22;6808;49.444;11.034;2022-12-07T07:19:16;2.20;99.90
13472;DHT22;6808;49.444;11.034;2022-12-07T07:21:42;2.20;99.90
13472;DHT22;6808;49.444;11.034;2022-12-07T07:24:07;2.20;99.90
13472;DHT22;6808;49.444;11.034;2022-12-07T07:26:33;2.20;99.90
13472;DHT22;6808;49.444;11.034;2022-12-07T07:28:59;2.20;99.90
13472;DHT22;6808;49.444;11.034;2022-12-07T07:31:24;2.20;99.90
13472;DHT22;6808;49.444;11.034;2022-12-07T07:33:52;2.20;99.90
13472;DHT22;6808;49.444;11.034;2022-12-07T07:36:17;2.20;99.90
13472;DHT22;6808;49.444;11.034;2022-12-07T07:38:43;2.20;99.90
13472;DHT22;6808;49.444;11.034;2022-12-07T07:41:08;2.30;99.90
13472;DHT22;6808;49.444;11.034;2022-12-07T07:43:34;2.30;99.90
13472;DHT22;6808;49.444;11.034;2022-12-07T07:46:00;2.30;99.90
13472;DHT22;6808;49.444;11.034;2022-12-07T07:48:25;2.20;99.90
13472;DHT22;6808;49.444;11.034;2022-12-07T07:50:51;2.30;99.90
13472;DHT22;6808;49.444;11.034;2022-12-07T07:53:17;2.30;99.90
13472;DHT22;6808;49.444;11.034;2022-12-07T07:55:53;2.30;99.90
13472;DHT22;6808;49.444;11.034;2022-12-07T07:58:20;2.30;99.90
13472;DHT22;6808;49.444;11.034;2022-12-07T08:00:45;2.30;99.90
13472;DHT22;6808;49.444;11.034;2022-12-07T08:03:11;2.40;99.90
13472;DHT22;6808;49.444;11.034;2022-12-07T08:05:37;2.40;99.90
13472;DHT22;6808;49.444;11.034;2022-12-07T08:08:03;2.40;99.90
13472;DHT22;6808;49.444;11.034;2022-12-07T08:10:28;2.40;99.90
13472;DHT22;6808;49.444;11.034;2022-12-07T08:12:54;2.40;99.90
13472;DHT22;6808;49.444;11.034;2022-12-07T08:15:39;2.40;99.90
13472;DHT22;6808;49.444;11.034;2022-12-07T08:18:06;2.40;99.90
13472;DHT22;6808;49.444;11.034;2022-12-07T08:20:32;2.50;99.90
13472;DHT22;6808;49.444;11.034;2022-12-07T08:22:58;2.50;99.90
13472;DHT22;6808;49.444;11.034;2022-12-07T08:25:24;2.50;99.90
13472;DHT22;6808;49.444;11.034;2022-12-07T08:27:50;2.50;99.90
13472;DHT22;6808;49.444;11.034;2022-12-07T08:30:16;2.60;99.90
13472;DHT22;6808;49.444;11.034;2022-12-07T08:32:44;2.50;99.90
13472;DHT22;6808;49.444;11.034;2022-12-07T08:35:10;2.60;99.90
13472;DHT22;6808;49.444;11.034;2022-12-07T08:37:35;2.60;99.90
13472;DHT22;6808;49.444;11.034;2022-12-07T08:40:01;2.60;99.90
13472;DHT22;6808;49.444;11.034;2022-12-07T08:42:27;2.60;99.90
13472;DHT22;6808;49.444;11.034;2022-12-07T08:44:56;2.60;99.90
13472;DHT22;6808;49.444;11.034;2022-12-07T08:47:22;2.60;99.90
13472;DHT22;6808;49.444;11.034;2022-12-07T08:49:49;2.70;99.90
13472;DHT22;6808;49.444;11.034;2022-12-07T08:52:15;2.70;99.90
13472;DHT22;6808;49.444;11.034;2022-12-07T08:54:41;2.70;99.90
13472;DHT22;6808;49.444;11.034;2022-12-07T08:57:08;2.70;99.90
13472;DHT22;6808;49.444;11.034;2022-12-07T08:59:35;2.80;99.90
13472;DHT22;6808;49.444;11.034;2022-12-07T09:02:01;2.80;99.90
13472;DHT22;6808;49.444;11.034;2022-12-07T09:04:26;2.80;99.90
13472;DHT22;6808;49.444;11.034;2022-12-07T09:06:54;2.90;99.90
13472;DHT22;6808;49.444;11.034;2022-12-07T09:09:20;2.90;99.90
13472;DHT22;6808;49.444;11.034;2022-12-07T09:11:45;2.90;99.90
13472;DHT22;6808;49.444;11.034;2022-12-07T09:14:11;2.90;99.90
13472;DHT22;6808;49.444;11.034;2022-12-07T09:16:38;2.90;99.90
13472;DHT22;6808;49.444;11.034;2022-12-07T09:19:03;3.00;99.90
13472;DHT22;6808;49.444;11.034;2022-12-07T09:21:29;2.90;99.90
13472;DHT22;6808;49.444;11.034;2022-12-07T09:23:55;2.90;99.90
13472;DHT22;6808;49.444;11.034;2022-12-07T09:26:21;2.90;99.90
13472;DHT22;6808;49.444;11.034;2022-12-07T09:28:46;2.90;99.90
13472;DHT22;6808;49.444;11.034;2022-12-07T09:31:12;2.90;99.90
13472;DHT22;6808;49.444;11.034;2022-12-07T09:33:38;2.90;99.90
13472;DHT22;6808;49.444;11.034;2022-12-07T09:36:04;2.90;99.90
13472;DHT22;6808;49.444;11.034;2022-12-07T09:38:30;2.90;99.90
13472;DHT22;6808;49.444;11.034;2022-12-07T09:40:56;3.00;99.90
13472;DHT22;6808;49.444;11.034;2022-12-07T09:43:24;2.90;99.90
13472;DHT22;6808;49.444;11.034;2022-12-07T09:45:54;2.90;99.90
13472;DHT22;6808;49.444;11.034;2022-12-07T09:50:51;2.90;99.90
13472;DHT22;6808;49.444;11.034;2022-12-07T09:53:36;2.90;99.90
13472;DHT22;6808;49.444;11.034;2022-12-07T09:56:03;2.90;99.90
13472;DHT22;6808;49.444;11.034;2022-12-07T09:58:30;2.90;99.90
13472;DHT22;6808;49.444;11.034;2022-12-07T10:01:00;2.80;99.90
13472;DHT22;6808;49.444;11.034;2022-12-07T10:03:29;2.80;99.90
13472;DHT22;6808;49.444;11.034;2022-12-07T10:05:55;2.80;99.90
13472;DHT22;6808;49.444;11.034;2022-12-07T10:08:22;2.90;99.90
13472;DHT22;6808;49.444;11.034;2022-12-07T10:10:53;2.90;99.90
13472;DHT22;6808;49.444;11.034;2022-12-07T10:13:21;3.00;99.90
13472;DHT22;6808;49.444;11.034;2022-12-07T10:20:47;3.00;99.90
13472;DHT22;6808;49.444;11.034;2022-12-07T10:23:17;3.00;99.90
13472;DHT22;6808;49.444;11.034;2022-12-07T10:25:44;3.00;99.90
13472;DHT22;6808;49.444;11.034;2022-12-07T10:28:15;3.10;99.90
13472;DHT22;6808;49.444;11.034;2022-12-07T10:30:55;3.10;99.90
13472;DHT22;6808;49.444;11.034;2022-12-07T10:33:28;3.20;99.90
13472;DHT22;6808;49.444;11.034;2022-12-07T10:35:54;3.20;99.90
13472;DHT22;6808;49.444;11.034;2022-12-07T10:38:20;3.20;99.90
13472;DHT22;6808;49.444;11.034;2022-12-07T10:40:45;3.20;99.90
13472;DHT22;6808;49.444;11.034;2022-12-07T10:54:11;3.40;99.90
13472;DHT22;6808;49.444;11.034;2022-12-07T11:05:02;3.40;99.90
13472;DHT22;6808;49.444;11.034;2022-12-07T11:21:45;3.50;99.90
13472;DHT22;6808;49.444;11.034;2022-12-07T11:24:18;3.50;99.90
13472;DHT22;6808;49.444;11.034;2022-12-07T11:29:51;3.50;99.90
13472;DHT22;6808;49.444;11.034;2022-12-07T11:37:51;3.60;99.90
13472;DHT22;6808;49.444;11.034;2022-12-07T11:40:31;3.70;99.90
13472;DHT22;6808;49.444;11.034;2022-12-07T11:43:13;3.70;99.90
13472;DHT22;6808;49.444;11.034;2022-12-07T11:45:42;3.70;99.90
13472;DHT22;6808;49.444;11.034;2022-12-07T11:50:47;3.60;99.90
13472;DHT22;6808;49.444;11.034;2022-12-07T12:04:06;3.70;99.90
13472;DHT22;6808;49.444;11.034;2022-12-07T12:06:32;3.70;99.90
13472;DHT22;6808;49.444;11.034;2022-12-07T12:09:14;3.70;99.90
13472;DHT22;6808;49.444;11.034;2022-12-07T12:12:16;3.70;99.90
13472;DHT22;6808;49.444;11.034;2022-12-07T12:20:51;3.80;99.90
13472;DHT22;6808;49.444;11.034;2022-12-07T12:23:22;3.80;99.90
13472;DHT22;6808;49.444;11.034;2022-12-07T12:25:57;3.70;99.90
13472;DHT22;6808;49.444;11.034;2022-12-07T12:34:00;3.80;99.90
13472;DHT22;6808;49.444;11.034;2022-12-07T12:36:45;3.80;99.90
13472;DHT22;6808;49.444;11.034;2022-12-07T12:39:12;3.70;99.90
13472;DHT22;6808;49.444;11.034;2022-12-07T12:51:50;3.80;99.90
13472;DHT22;6808;49.444;11.034;2022-12-07T12:54:29;3.70;99.90
13472;DHT22;6808;49.444;11.034;2022-12-07T12:57:26;3.70;99.90
13472;DHT22;6808;49.444;11.034;2022-12-07T13:15:44;3.70;99.90
13472;DHT22;6808;49.444;11.034;2022-12-07T13:21:00;3.70;99.90
13472;DHT22;6808;49.444;11.034;2022-12-07T13:23:32;3.70;99.90
13472;DHT22;6808;49.444;11.034;2022-12-07T13:28:51;3.60;99.90
13472;DHT22;6808;49.444;11.034;2022-12-07T13:31:31;3.60;99.90
13472;DHT22;6808;49.444;11.034;2022-12-07T13:33:58;3.70;99.90
13472;DHT22;6808;49.444;11.034;2022-12-07T13:36:26;3.70;99.90
13472;DHT22;6808;49.444;11.034;2022-12-07T13:38:54;3.70;99.90
13472;DHT22;6808;49.444;11.034;2022-12-07T13:41:23;3.70;99.90
13472;DHT22;6808;49.444;11.034;2022-12-07T13:46:25;3.70;99.90
13472;DHT22;6808;49.444;11.034;2022-12-07T13:48:51;3.70;99.90
13472;DHT22;6808;49.444;11.034;2022-12-07T13:51:27;3.80;99.90
13472;DHT22;6808;49.444;11.034;2022-12-07T13:54:06;3.70;99.90
13472;DHT22;6808;49.444;11.034;2022-12-07T13:56:35;3.70;99.90
13472;DHT22;6808;49.444;11.034;2022-12-07T13:59:01;3.70;99.90
13472;DHT22;6808;49.444;11.034;2022-12-07T14:01:30;3.70;99.90
13472;DHT22;6808;49.444;11.034;2022-12-07T14:03:56;3.70;99.90
13472;DHT22;6808;49.444;11.034;2022-12-07T14:06:51;3.70;99.90
13472;DHT22;6808;49.444;11.034;2022-12-07T14:11:45;3.70;99.90
13472;DHT22;6808;49.444;11.034;2022-12-07T14:14:19;3.70;99.90
13472;DHT22;6808;49.444;11.034;2022-12-07T14:16:59;3.80;99.90
13472;DHT22;6808;49.444;11.034;2022-12-07T14:19:42;3.80;99.90
13472;DHT22;6808;49.444;11.034;2022-12-07T14:24:46;3.70;99.90
13472;DHT22;6808;49.444;11.034;2022-12-07T14:27:22;3.70;99.90
13472;DHT22;6808;49.444;11.034;2022-12-07T14:29:51;3.70;99.90
13472;DHT22;6808;49.444;11.034;2022-12-07T14:32:25;3.70;99.90
13472;DHT22;6808;49.444;11.034;2022-12-07T14:37:24;3.70;99.90
13472;DHT22;6808;49.444;11.034;2022-12-07T14:39:49;3.70;99.90
13472;DHT22;6808;49.444;11.034;2022-12-07T14:42:15;3.70;99.90
13472;DHT22;6808;49.444;11.034;2022-12-07T14:44:40;3.70;99.90
13472;DHT22;6808;49.444;11.034;2022-12-07T14:47:11;3.70;99.90
13472;DHT22;6808;49.444;11.034;2022-12-07T14:49:37;3.70;99.90
13472;DHT22;6808;49.444;11.034;2022-12-07T14:52:04;3.70;99.90
13472;DHT22;6808;49.444;11.034;2022-12-07T14:54:31;3.70;99.90
13472;DHT22;6808;49.444;11.034;2022-12-07T14:56:58;3.70;99.90
13472;DHT22;6808;49.444;11.034;2022-12-07T14:59:24;3.60;99.90
13472;DHT22;6808;49.444;11.034;2022-12-07T15:01:49;3.60;99.90
13472;DHT22;6808;49.444;11.034;2022-12-07T15:04:15;3.70;99.90
13472;DHT22;6808;49.444;11.034;2022-12-07T15:06:41;3.70;99.90
13472;DHT22;6808;49.444;11.034;2022-12-07T15:09:10;3.60;99.90
13472;DHT22;6808;49.444;11.034;2022-12-07T15:11:36;3.60;99.90
13472;DHT22;6808;49.444;11.034;2022-12-07T15:14:02;3.60;99.90
13472;DHT22;6808;49.444;11.034;2022-12-07T15:16:34;3.60;99.90
13472;DHT22;6808;49.444;11.034;2022-12-07T15:19:01;3.50;99.90
13472;DHT22;6808;49.444;11.034;2022-12-07T15:21:27;3.50;99.90
13472;DHT22;6808;49.444;11.034;2022-12-07T15:23:53;3.00;99.90
13472;DHT22;6808;49.444;11.034;2022-12-07T15:26:19;3.50;99.90
13472;DHT22;6808;49.444;11.034;2022-12-07T15:28:44;3.50;99.90
13472;DHT22;6808;49.444;11.034;2022-12-07T15:31:17;3.40;99.90
13472;DHT22;6808;49.444;11.034;2022-12-07T15:33:43;3.40;99.90
13472;DHT22;6808;49.444;11.034;2022-12-07T15:36:22;3.40;99.90
13472;DHT22;6808;49.444;11.034;2022-12-07T15:38:48;3.40;99.90
13472;DHT22;6808;49.444;11.034;2022-12-07T15:41:14;3.50;99.90
13472;DHT22;6808;49.444;11.034;2022-12-07T15:43:39;3.40;99.90
13472;DHT22;6808;49.444;11.034;2022-12-07T15:46:28;3.40;99.90
13472;DHT22;6808;49.444;11.034;2022-12-07T15:48:54;3.50;99.90
13472;DHT22;6808;49.444;11.034;2022-12-07T15:51:19;3.50;99.90
13472;DHT22;6808;49.444;11.034;2022-12-07T15:53:45;3.50;99.90
13472;DHT22;6808;49.444;11.034;2022-12-07T15:56:11;3.50;99.90
13472;DHT22;6808;49.444;11.034;2022-12-07T15:58:37;3.50;99.90
13472;DHT22;6808;49.444;11.034;2022-12-07T16:01:14;3.50;99.90
13472;DHT22;6808;49.444;11.034;2022-12-07T16:03:40;3.40;99.90
13472;DHT22;6808;49.444;11.034;2022-12-07T16:06:06;3.40;99.90
13472;DHT22;6808;49.444;11.034;2022-12-07T16:08:32;3.40;99.90
13472;DHT22;6808;49.444;11.034;2022-12-07T16:10:58;3.40;99.90
13472;DHT22;6808;49.444;11.034;2022-12-07T16:13:23;3.40;99.90
13472;DHT22;6808;49.444;11.034;2022-12-07T16:15:49;3.40;99.90
13472;DHT22;6808;49.444;11.034;2022-12-07T16:18:14;3.40;99.90
13472;DHT22;6808;49.444;11.034;2022-12-07T16:20:40;3.30;99.90
13472;DHT22;6808;49.444;11.034;2022-12-07T16:23:06;3.20;99.90
13472;DHT22;6808;49.444;11.034;2022-12-07T16:25:33;3.30;99.90
13472;DHT22;6808;49.444;11.034;2022-12-07T16:27:58;3.40;99.90
13472;DHT22;6808;49.444;11.034;2022-12-07T16:30:24;3.30;99.90
13472;DHT22;6808;49.444;11.034;2022-12-07T16:32:51;3.20;99.90
13472;DHT22;6808;49.444;11.034;2022-12-07T16:35:16;3.30;99.90
13472;DHT22;6808;49.444;11.034;2022-12-07T16:37:42;3.30;99.90
13472;DHT22;6808;49.444;11.034;2022-12-07T16:40:09;3.30;99.90
13472;DHT22;6808;49.444;11.034;2022-12-07T16:42:35;3.20;99.90
13472;DHT22;6808;49.444;11.034;2022-12-07T16:45:01;3.20;99.90
13472;DHT22;6808;49.444;11.034;2022-12-07T16:47:27;3.20;99.90
13472;DHT22;6808;49.444;11.034;2022-12-07T16:49:53;3.20;99.90
13472;DHT22;6808;49.444;11.034;2022-12-07T16:52:20;3.20;99.90
13472;DHT22;6808;49.444;11.034;2022-12-07T16:54:46;3.20;99.90
13472;DHT22;6808;49.444;11.034;2022-12-07T16:57:12;3.20;99.90
13472;DHT22;6808;49.444;11.034;2022-12-07T16:59:37;3.20;99.90
13472;DHT22;6808;49.444;11.034;2022-12-07T17:02:03;3.20;99.90
13472;DHT22;6808;49.444;11.034;2022-12-07T17:04:29;3.20;99.90
13472;DHT22;6808;49.444;11.034;2022-12-07T17:06:55;3.30;99.90
13472;DHT22;6808;49.444;11.034;2022-12-07T17:09:20;3.30;99.90
13472;DHT22;6808;49.444;11.034;2022-12-07T17:11:46;3.30;99.90
13472;DHT22;6808;49.444;11.034;2022-12-07T17:14:12;3.30;99.90
13472;DHT22;6808;49.444;11.034;2022-12-07T17:16:56;3.30;99.90
13472;DHT22;6808;49.444;11.034;2022-12-07T17:19:22;3.20;99.90
13472;DHT22;6808;49.444;11.034;2022-12-07T17:21:47;3.20;99.90
13472;DHT22;6808;49.444;11.034;2022-12-07T17:24:15;3.20;99.90
13472;DHT22;6808;49.444;11.034;2022-12-07T17:26:42;3.20;99.90
13472;DHT22;6808;49.444;11.034;2022-12-07T17:29:08;3.20;99.90
13472;DHT22;6808;49.444;11.034;2022-12-07T17:31:35;3.20;99.90
13472;DHT22;6808;49.444;11.034;2022-12-07T17:34:01;3.20;99.90
13472;DHT22;6808;49.444;11.034;2022-12-07T17:36:29;3.10;99.90
13472;DHT22;6808;49.444;11.034;2022-12-07T17:38:55;3.10;99.90
13472;DHT22;6808;49.444;11.034;2022-12-07T17:41:26;3.10;99.90
13472;DHT22;6808;49.444;11.034;2022-12-07T17:44:12;3.10;99.90
13472;DHT22;6808;49.444;11.034;2022-12-07T17:46:38;3.10;99.90
13472;DHT22;6808;49.444;11.034;2022-12-07T17:49:04;3.10;99.90
13472;DHT22;6808;49.444;11.034;2022-12-07T17:51:30;3.10;99.90
13472;DHT22;6808;49.444;11.034;2022-12-07T17:54:16;3.10;99.90
13472;DHT22;6808;49.444;11.034;2022-12-07T17:56:42;3.00;99.90
13472;DHT22;6808;49.444;11.034;2022-12-07T17:59:08;3.00;99.90
13472;DHT22;6808;49.444;11.034;2022-12-07T18:01:34;2.90;99.90
13472;DHT22;6808;49.444;11.034;2022-12-07T18:04:00;3.00;99.90
13472;DHT22;6808;49.444;11.034;2022-12-07T18:06:25;3.00;99.90
13472;DHT22;6808;49.444;11.034;2022-12-07T18:08:51;2.90;99.90
13472;DHT22;6808;49.444;11.034;2022-12-07T18:11:17;2.90;99.90
13472;DHT22;6808;49.444;11.034;2022-12-07T18:13:43;2.90;99.90
13472;DHT22;6808;49.444;11.034;2022-12-07T18:16:12;2.80;99.90
13472;DHT22;6808;49.444;11.034;2022-12-07T18:18:38;2.80;99.90
13472;DHT22;6808;49.444;11.034;2022-12-07T18:21:07;2.80;99.90
13472;DHT22;6808;49.444;11.034;2022-12-07T18:23:34;2.80;99.90